Yilan, Taiwan

3:29 AM CST on February 09, 2016 (GMT +0800)
IU53F0U73 | | Change Station
CLOSE
Current Station
Personal Weather Station
Location: Yonghe City, Taiwan
Elevation: 62 ft
Nearby Weather Stations

Elev 62 ft 25.00 °N, 121.51 °E | Updated 3 minutes ago

Clear
Clear
53.3 °F
Feels Like 53.3 °F
N
0.0
Wind Variable Wind from South
Gusts 0.0 mph

Today
High -- | Low -- °F
--% Chance of Precip.
Yesterday
High -- | Low -- °F
Precip. -- in
Pressure 30.18 in
Visibility -9999.0 miles
Clouds
Dew Point 50 °F
Humidity 87%
Rainfall 0.00 in
Snow Depth Not available.
6:31 AM 5:43 PM
New Moon, 0% visible
METAR RCSS 081900Z 09003KT CAVOK 09/05 Q1022 NOSIG RMK A3019
Pressure 30.18 in
Visibility -9999.0 miles
Clouds
Dew Point 50 °F
Humidity 87%
Rainfall 0.00 in
Snow Depth Not available.
6:31 AM 5:43 PM
New Moon, 0% visible
METAR RCSS 081900Z 09003KT CAVOK 09/05 Q1022 NOSIG RMK A3019

10-Day Weather Forecast

No radar image for this location.
×

Almanac

Astronomy

Feb. 09, 2016 Rise Set
Actual Time
Civil Twilight
Nautical Twilight
Astronomical Twilight
Moon
Length of Visible Light
Length of Day
Tomorrow will be .
, % of the Moon is Illuminated

Today's Extremes

Country Highs Country Lows

Community

WunderPhotos

Upload Photos

1,891,499 photos uploaded!

WunderBlog® & News

Nearby

Air Quality

  Air Quality AQ Index Pollutant
Not available.

Snow Depth

Station Depth Elevation

Earthquake Activity

City Distance Mag. Time & Date
Minimum magnitude displayed is 2.5.

Coastal Water Temperatures

Place Temperature

Stations

Nearby Weather Stations

Station Location Temp. Windchill Dew Point Humidity Wind Precip. Elev Updated Type